createdAt,value
2018-09-17T00:00:14.499Z,100.0
2018-09-17T00:01:15.237Z,100.0
2018-09-17T00:02:15.960Z,100.0
2018-09-17T00:03:16.933Z,100.0
2018-09-17T00:04:18.166Z,100.0
2018-09-17T00:05:19.147Z,100.0
2018-09-17T00:06:19.870Z,100.0
2018-09-17T00:07:20.581Z,100.0
2018-09-17T00:08:21.548Z,100.0
2018-09-17T00:09:22.275Z,100.0
2018-09-17T00:10:23.044Z,100.0
2018-09-17T00:11:23.764Z,100.0
2018-09-17T00:12:24.748Z,100.0
2018-09-17T00:13:25.473Z,100.0
2018-09-17T00:14:26.199Z,100.0
2018-09-17T00:15:26.976Z,100.0
2018-09-17T00:16:27.704Z,100.0
2018-09-17T00:17:28.433Z,100.0
2018-09-17T00:18:29.152Z,100.0
2018-09-17T00:19:30.127Z,100.0
2018-09-17T00:20:30.842Z,100.0
2018-09-17T00:21:31.816Z,100.0
2018-09-17T00:22:32.531Z,100.0
2018-09-17T00:23:33.260Z,100.0
2018-09-17T00:24:33.976Z,100.0
2018-09-17T00:25:34.956Z,100.0
2018-09-17T00:26:35.683Z,100.0
2018-09-17T00:27:36.393Z,100.0
2018-09-17T00:28:37.367Z,100.0
2018-09-17T00:29:38.351Z,100.0
2018-09-17T00:30:39.053Z,100.0
2018-09-17T00:31:40.028Z,100.0
2018-09-17T00:32:40.756Z,100.0
2018-09-17T00:33:41.471Z,100.0
2018-09-17T00:34:42.191Z,100.0
2018-09-17T00:35:42.925Z,100.0
2018-09-17T00:36:43.890Z,100.0
2018-09-17T00:37:44.599Z,100.0
2018-09-17T00:38:45.582Z,100.0
2018-09-17T00:39:46.316Z,100.0
2018-09-17T00:40:47.283Z,100.0
2018-09-17T00:41:48.003Z,100.0
2018-09-17T00:42:48.725Z,100.0
2018-09-17T00:43:49.441Z,100.0
2018-09-17T00:44:50.175Z,100.0
2018-09-17T00:45:50.928Z,100.0
2018-09-17T00:46:51.653Z,100.0
2018-09-17T00:47:52.370Z,100.0
2018-09-17T00:48:53.095Z,100.0
2018-09-17T00:49:53.824Z,100.0
2018-09-17T00:50:54.540Z,100.0
2018-09-17T00:51:55.256Z,100.0
2018-09-17T00:52:56.035Z,100.0
2018-09-17T00:53:57.002Z,100.0
2018-09-17T00:54:57.747Z,100.0
2018-09-17T00:55:58.462Z,100.0
2018-09-17T00:56:59.184Z,100.0
2018-09-17T00:58:00.062Z,100.0
2018-09-17T00:59:00.615Z,100.0
2018-09-17T01:00:01.326Z,100.0
2018-09-17T01:01:02.054Z,100.0
2018-09-17T01:02:02.766Z,100.0
2018-09-17T01:03:03.489Z,100.0
2018-09-17T01:04:04.213Z,100.0
2018-09-17T01:05:04.936Z,100.0
2018-09-17T01:06:05.668Z,100.0
2018-09-17T01:07:06.383Z,100.0
2018-09-17T01:08:07.101Z,100.0
2018-09-17T01:09:07.882Z,100.0
2018-09-17T01:10:08.604Z,100.0
2018-09-17T01:11:09.364Z,100.0
2018-09-17T01:12:10.088Z,100.0
2018-09-17T01:13:10.755Z,100.0
2018-09-17T01:14:11.729Z,100.0
2018-09-17T01:15:12.445Z,100.0
2018-09-17T01:16:13.159Z,100.0
2018-09-17T01:17:13.871Z,100.0
2018-09-17T01:18:14.585Z,100.0
2018-09-17T01:19:15.351Z,100.0
2018-09-17T01:20:16.070Z,100.0
2018-09-17T01:21:16.787Z,100.0
2018-09-17T01:22:17.530Z,100.0
2018-09-17T01:23:18.254Z,100.0
2018-09-17T01:24:19.231Z,100.0
2018-09-17T01:25:19.944Z,100.0
2018-09-17T01:26:20.663Z,100.0
2018-09-17T01:27:21.375Z,100.0
2018-09-17T01:28:22.338Z,100.0
2018-09-17T01:29:23.301Z,100.0
2018-09-17T01:30:24.018Z,100.0
2018-09-17T01:31:24.738Z,100.0
2018-09-17T01:32:25.459Z,100.0
2018-09-17T01:33:26.186Z,100.0
2018-09-17T01:34:26.899Z,100.0
2018-09-17T01:35:27.626Z,100.0
2018-09-17T01:36:28.339Z,100.0
2018-09-17T01:37:29.056Z,100.0
2018-09-17T01:38:30.029Z,100.0
2018-09-17T01:39:30.795Z,100.0
2018-09-17T01:40:31.512Z,100.0
2018-09-17T01:41:32.227Z,100.0
2018-09-17T01:42:32.948Z,100.0
2018-09-17T01:43:33.667Z,100.0
2018-09-17T01:44:34.394Z,100.0
2018-09-17T01:45:35.111Z,100.0
2018-09-17T01:46:35.825Z,100.0
2018-09-17T01:47:36.533Z,100.0
2018-09-17T01:48:37.251Z,100.0
2018-09-17T01:49:37.968Z,100.0
2018-09-17T01:50:38.690Z,100.0
2018-09-17T01:51:39.405Z,100.0
2018-09-17T01:52:40.121Z,100.0
2018-09-17T01:53:40.829Z,100.0
2018-09-17T01:54:41.537Z,100.0
2018-09-17T01:55:42.254Z,100.0
2018-09-17T01:56:42.959Z,100.0
2018-09-17T01:57:43.672Z,100.0
2018-09-17T01:58:44.390Z,100.0
2018-09-17T01:59:45.105Z,100.0
2018-09-17T02:00:45.816Z,100.0
2018-09-17T02:01:46.588Z,100.0
2018-09-17T02:02:47.304Z,100.0
2018-09-17T02:03:48.030Z,100.0
2018-09-17T02:04:48.996Z,100.0
2018-09-17T02:05:49.711Z,100.0
2018-09-17T02:06:50.416Z,100.0
2018-09-17T02:07:51.144Z,100.0
2018-09-17T02:08:51.920Z,100.0
2018-09-17T02:09:52.603Z,100.0
2018-09-17T02:10:53.312Z,100.0
2018-09-17T02:11:54.082Z,100.0
2018-09-17T02:12:55.064Z,100.0
2018-09-17T02:13:56.038Z,100.0
2018-09-17T02:14:56.745Z,100.0
2018-09-17T02:15:57.456Z,100.0
2018-09-17T02:16:58.230Z,100.0
2018-09-17T02:17:58.948Z,100.0
2018-09-17T02:18:59.911Z,100.0
2018-09-17T02:20:00.626Z,100.0
2018-09-17T02:21:01.343Z,100.0
2018-09-17T02:22:02.119Z,100.0
2018-09-17T02:23:02.837Z,100.0
2018-09-17T02:24:03.805Z,100.0
2018-09-17T02:25:04.519Z,100.0
2018-09-17T02:26:05.250Z,100.0
2018-09-17T02:27:06.015Z,100.0
2018-09-17T02:28:06.992Z,100.0
2018-09-17T02:29:07.702Z,100.0
2018-09-17T02:30:08.416Z,100.0
2018-09-17T02:31:09.144Z,100.0
2018-09-17T02:32:09.863Z,100.0
2018-09-17T02:33:10.589Z,100.0
2018-09-17T02:34:11.544Z,100.0
2018-09-17T02:35:12.322Z,100.0
2018-09-17T02:36:13.040Z,100.0
2018-09-17T02:37:13.764Z,100.0
2018-09-17T02:38:14.480Z,100.0
2018-09-17T02:39:15.194Z,100.0
2018-09-17T02:40:15.906Z,100.0
2018-09-17T02:41:16.615Z,100.0
2018-09-17T02:42:17.334Z,100.0
2018-09-17T02:43:18.059Z,100.0
2018-09-17T02:44:18.781Z,100.0
2018-09-17T02:45:19.483Z,100.0
2018-09-17T02:46:20.205Z,100.0
2018-09-17T02:47:20.920Z,100.0
2018-09-17T02:48:21.636Z,100.0
2018-09-17T02:49:22.422Z,100.0
2018-09-17T02:50:23.178Z,100.0
2018-09-17T02:51:24.141Z,100.0
2018-09-17T02:52:24.855Z,100.0
2018-09-17T02:53:25.609Z,100.0
2018-09-17T02:54:26.288Z,100.0
2018-09-17T02:55:27.004Z,100.0
2018-09-17T02:56:27.742Z,100.0
2018-09-17T02:57:28.453Z,100.0
2018-09-17T02:58:29.179Z,100.0
2018-09-17T02:59:29.893Z,100.0
2018-09-17T03:00:30.617Z,100.0
2018-09-17T03:01:31.324Z,100.0
2018-09-17T03:02:32.041Z,100.0
2018-09-17T03:03:32.760Z,100.0
2018-09-17T03:04:33.470Z,100.0
2018-09-17T03:05:34.429Z,100.0
2018-09-17T03:06:35.392Z,100.0
2018-09-17T03:07:36.116Z,100.0
2018-09-17T03:08:36.824Z,100.0
2018-09-17T03:09:37.592Z,100.0
2018-09-17T03:10:38.309Z,100.0
2018-09-17T03:11:39.020Z,100.0
2018-09-17T03:12:39.995Z,100.0
2018-09-17T03:13:40.722Z,100.0
2018-09-17T03:14:41.478Z,100.0
2018-09-17T03:15:42.191Z,100.0
2018-09-17T03:16:42.915Z,100.0
2018-09-17T03:17:43.619Z,100.0
2018-09-17T03:18:44.330Z,100.0
2018-09-17T03:19:45.041Z,100.0
2018-09-17T03:20:45.766Z,100.0
2018-09-17T03:21:46.523Z,100.0
2018-09-17T03:22:47.251Z,100.0
2018-09-17T03:23:47.968Z,100.0
2018-09-17T03:24:48.676Z,100.0
2018-09-17T03:25:49.388Z,99.6
2018-09-17T03:26:50.102Z,99.9
2018-09-17T03:27:50.822Z,100.0
2018-09-17T03:28:51.529Z,99.8
2018-09-17T03:29:52.256Z,100.0
2018-09-17T03:30:52.957Z,100.0
2018-09-17T03:31:53.665Z,100.0
2018-09-17T03:32:54.385Z,100.0
2018-09-17T03:33:55.105Z,100.0
2018-09-17T03:34:55.820Z,100.0
2018-09-17T03:35:56.537Z,100.0
2018-09-17T03:36:57.250Z,100.0
2018-09-17T03:37:57.963Z,100.0
2018-09-17T03:38:58.682Z,100.0
2018-09-17T03:39:59.395Z,100.0
2018-09-17T03:41:00.113Z,100.0
2018-09-17T03:42:00.825Z,100.0
2018-09-17T03:43:01.548Z,100.0
2018-09-17T03:44:02.268Z,100.0
2018-09-17T03:45:02.967Z,100.0
2018-09-17T03:46:03.683Z,100.0
2018-09-17T03:47:04.643Z,100.0
2018-09-17T03:48:05.356Z,100.0
2018-09-17T03:49:06.080Z,100.0
2018-09-17T03:50:06.792Z,100.0
2018-09-17T03:51:07.504Z,100.0
2018-09-17T03:52:08.216Z,100.0
2018-09-17T03:53:08.928Z,100.0
2018-09-17T03:54:09.658Z,100.0
2018-09-17T03:55:10.376Z,100.0
2018-09-17T03:56:11.081Z,100.0
2018-09-17T03:57:11.790Z,100.0
2018-09-17T03:58:12.505Z,100.0
2018-09-17T03:59:13.271Z,100.0
2018-09-17T04:00:13.988Z,100.0
2018-09-17T04:01:14.950Z,100.0
2018-09-17T04:02:15.674Z,100.0
2018-09-17T04:03:16.388Z,100.0
2018-09-17T04:04:17.101Z,100.0
2018-09-17T04:05:17.816Z,100.0
2018-09-17T04:06:18.788Z,100.0
2018-09-17T04:07:19.495Z,100.0
2018-09-17T04:08:20.213Z,100.0
2018-09-17T04:09:20.930Z,100.0
2018-09-17T04:10:21.645Z,100.0
2018-09-17T04:11:22.358Z,100.0
2018-09-17T04:12:23.073Z,100.0
2018-09-17T04:13:23.789Z,100.0
2018-09-17T04:14:24.507Z,100.0
2018-09-17T04:15:25.227Z,100.0
2018-09-17T04:16:25.948Z,100.0
2018-09-17T04:17:26.721Z,100.0
2018-09-17T04:18:27.391Z,100.0
2018-09-17T04:19:28.105Z,100.0
2018-09-17T04:20:28.828Z,100.0
2018-09-17T04:21:29.551Z,100.0
2018-09-17T04:22:30.322Z,100.0
2018-09-17T04:23:31.023Z,100.0
2018-09-17T04:24:31.747Z,100.0
2018-09-17T04:25:32.467Z,100.0
2018-09-17T04:26:33.173Z,100.0
2018-09-17T04:27:33.938Z,100.0
2018-09-17T04:28:34.903Z,100.0
2018-09-17T04:29:35.620Z,100.0
2018-09-17T04:30:36.584Z,100.0
2018-09-17T04:31:37.386Z,100.0
2018-09-17T04:32:38.263Z,100.0
2018-09-17T04:33:38.973Z,100.0
2018-09-17T04:34:39.709Z,100.0
2018-09-17T04:35:40.411Z,100.0
2018-09-17T04:36:41.124Z,100.0
2018-09-17T04:37:41.845Z,100.0
2018-09-17T04:38:42.552Z,100.0
2018-09-17T04:39:43.556Z,100.0
2018-09-17T04:40:44.238Z,100.0
2018-09-17T04:41:45.203Z,100.0
2018-09-17T04:42:45.925Z,100.0
2018-09-17T04:43:46.647Z,100.0
2018-09-17T04:44:47.609Z,100.0
2018-09-17T04:45:48.323Z,100.0
2018-09-17T04:46:49.046Z,100.0
2018-09-17T04:47:50.014Z,100.0
2018-09-17T04:48:50.736Z,100.0
2018-09-17T04:49:51.468Z,100.0
2018-09-17T04:50:52.189Z,100.0
2018-09-17T04:51:52.916Z,100.0
2018-09-17T04:52:53.637Z,100.0
2018-09-17T04:53:54.620Z,100.0
2018-09-17T04:54:55.324Z,100.0
2018-09-17T04:55:56.048Z,100.0
2018-09-17T04:56:56.779Z,100.0
2018-09-17T04:57:57.490Z,100.0
2018-09-17T04:58:58.203Z,100.0
2018-09-17T04:59:58.915Z,100.0
2018-09-17T05:00:59.637Z,100.0
2018-09-17T05:02:00.355Z,100.0
2018-09-17T05:03:01.074Z,100.0
2018-09-17T05:04:01.818Z,100.0
2018-09-17T05:05:02.543Z,100.0
2018-09-17T05:06:03.269Z,100.0
2018-09-17T05:07:03.995Z,100.0
2018-09-17T05:08:04.718Z,100.0
2018-09-17T05:09:05.439Z,100.0
2018-09-17T05:10:06.146Z,100.0
2018-09-17T05:11:07.164Z,100.0
2018-09-17T05:12:07.888Z,100.0
2018-09-17T05:13:08.707Z,100.0
2018-09-17T05:14:09.315Z,100.0
2018-09-17T05:15:10.028Z,100.0
2018-09-17T05:16:11.003Z,100.0
2018-09-17T05:17:11.722Z,100.0
2018-09-17T05:18:12.442Z,100.0
2018-09-17T05:19:13.170Z,100.0
2018-09-17T05:20:13.902Z,100.0
2018-09-17T05:21:14.620Z,100.0
2018-09-17T05:22:15.587Z,100.0
2018-09-17T05:23:16.329Z,100.0
2018-09-17T05:24:17.039Z,100.0
2018-09-17T05:25:18.021Z,100.0
2018-09-17T05:26:18.764Z,100.0
2018-09-17T05:27:19.498Z,100.0
2018-09-17T05:28:20.969Z,100.0
2018-09-17T05:29:21.735Z,100.0
2018-09-17T05:30:22.557Z,100.0
2018-09-17T05:31:23.312Z,100.0
2018-09-17T05:32:24.037Z,100.0
2018-09-17T05:33:24.774Z,100.0
2018-09-17T05:34:25.500Z,100.0
2018-09-17T05:35:26.221Z,100.0
2018-09-17T05:36:26.934Z,100.0
2018-09-17T05:37:27.720Z,100.0
2018-09-17T05:38:28.436Z,100.0
2018-09-17T05:39:29.159Z,100.0
2018-09-17T05:40:29.880Z,100.0
2018-09-17T05:41:30.598Z,100.0
2018-09-17T05:42:31.319Z,100.0
2018-09-17T05:43:32.055Z,100.0
2018-09-17T05:44:32.844Z,100.0
2018-09-17T05:45:33.512Z,100.0
2018-09-17T05:46:34.243Z,100.0
2018-09-17T05:47:34.975Z,100.0
2018-09-17T05:48:35.700Z,100.0
2018-09-17T05:49:36.433Z,100.0
2018-09-17T05:50:37.172Z,100.0
2018-09-17T05:51:37.890Z,100.0
2018-09-17T05:52:38.636Z,100.0
2018-09-17T05:53:39.417Z,100.0
2018-09-17T05:54:40.081Z,100.0
2018-09-17T05:55:40.810Z,100.0
2018-09-17T05:56:41.557Z,100.0
2018-09-17T05:57:42.525Z,100.0
2018-09-17T05:58:43.281Z,100.0
2018-09-17T05:59:44.047Z,100.0
2018-09-17T06:00:44.984Z,100.0
2018-09-17T06:01:45.716Z,100.0
2018-09-17T06:02:46.431Z,100.0
2018-09-17T06:03:47.405Z,100.0
2018-09-17T06:04:48.133Z,100.0
2018-09-17T06:05:48.939Z,100.0
2018-09-17T06:06:49.670Z,100.0
2018-09-17T06:07:50.338Z,100.0
2018-09-17T06:08:51.083Z,100.0
2018-09-17T06:09:51.882Z,100.0
2018-09-17T06:10:52.529Z,100.0
2018-09-17T06:11:53.391Z,100.0
2018-09-17T06:12:53.978Z,100.0
2018-09-17T06:13:54.701Z,100.0
2018-09-17T06:14:55.438Z,100.0
2018-09-17T06:15:56.170Z,100.0
2018-09-17T06:16:56.883Z,100.0
2018-09-17T06:17:57.657Z,100.0
2018-09-17T06:18:58.389Z,100.0
2018-09-17T06:19:59.117Z,100.0
2018-09-17T06:20:59.837Z,100.0
2018-09-17T06:22:00.576Z,100.0
2018-09-17T06:23:01.302Z,100.0
2018-09-17T06:24:02.284Z,100.0
2018-09-17T06:25:03.015Z,100.0
2018-09-17T06:26:03.760Z,100.0
2018-09-17T06:27:04.472Z,100.0
2018-09-17T06:28:05.194Z,100.0
2018-09-17T06:29:05.931Z,100.0
2018-09-17T06:30:06.685Z,100.0
2018-09-17T06:31:07.389Z,100.0
2018-09-17T06:32:08.107Z,100.0
2018-09-17T06:33:08.823Z,100.0
2018-09-17T06:34:09.546Z,100.0
2018-09-17T06:35:10.274Z,100.0
2018-09-17T06:36:11.005Z,100.0
2018-09-17T06:37:11.714Z,100.0
2018-09-17T06:38:12.435Z,100.0
2018-09-17T06:39:13.163Z,100.0
2018-09-17T06:40:13.881Z,100.0
2018-09-17T06:41:14.601Z,100.0
2018-09-17T06:42:15.339Z,100.0
2018-09-17T06:43:16.058Z,100.0
2018-09-17T06:44:17.277Z,100.0
2018-09-17T06:45:18.005Z,100.0
2018-09-17T06:46:18.724Z,100.0
2018-09-17T06:47:19.440Z,100.0
2018-09-17T06:48:20.179Z,100.0
2018-09-17T06:49:20.893Z,100.0
2018-09-17T06:50:21.618Z,100.0
2018-09-17T06:51:22.610Z,100.0
2018-09-17T06:52:23.316Z,100.0
2018-09-17T06:53:24.049Z,100.0
2018-09-17T06:54:24.772Z,100.0
2018-09-17T06:55:25.501Z,100.0
2018-09-17T06:56:26.236Z,100.0
2018-09-17T06:57:26.964Z,100.0
2018-09-17T06:58:27.699Z,100.0
2018-09-17T06:59:28.407Z,100.0
2018-09-17T07:00:29.127Z,100.0
2018-09-17T07:01:29.845Z,100.0
2018-09-17T07:02:30.566Z,100.0
2018-09-17T07:03:31.294Z,100.0
2018-09-17T07:04:32.016Z,100.0
2018-09-17T07:05:32.737Z,100.0
2018-09-17T07:06:33.457Z,100.0
2018-09-17T07:07:34.230Z,100.0
2018-09-17T07:08:34.956Z,100.0
2018-09-17T07:09:35.688Z,100.0
2018-09-17T07:10:36.407Z,100.0
2018-09-17T07:11:37.131Z,100.0
2018-09-17T07:12:37.865Z,100.0
2018-09-17T07:13:38.587Z,100.0
2018-09-17T07:14:39.325Z,100.0
2018-09-17T07:15:40.053Z,100.0
2018-09-17T07:16:40.774Z,100.0
2018-09-17T07:17:41.501Z,100.0
2018-09-17T07:18:42.224Z,100.0
2018-09-17T07:19:42.957Z,100.0
2018-09-17T07:20:43.686Z,100.0
2018-09-17T07:21:44.414Z,100.0
2018-09-17T07:22:45.399Z,100.0
2018-09-17T07:23:46.159Z,100.0
2018-09-17T07:24:46.885Z,100.0
2018-09-17T07:25:47.608Z,100.0
2018-09-17T07:26:48.341Z,100.0
2018-09-17T07:27:49.068Z,100.0
2018-09-17T07:28:50.090Z,100.0
2018-09-17T07:29:50.820Z,100.0
2018-09-17T07:30:51.542Z,100.0
2018-09-17T07:31:52.276Z,100.0
2018-09-17T07:32:53.006Z,100.0
2018-09-17T07:33:53.736Z,100.0
2018-09-17T07:34:54.458Z,100.0
2018-09-17T07:35:55.186Z,100.0
2018-09-17T07:36:55.908Z,100.0
2018-09-17T07:37:56.638Z,100.0
2018-09-17T07:38:57.356Z,100.0
2018-09-17T07:39:58.080Z,100.0
2018-09-17T07:40:59.056Z,100.0
2018-09-17T07:41:59.801Z,100.0
2018-09-17T07:43:00.497Z,100.0
2018-09-17T07:44:01.223Z,100.0
2018-09-17T07:45:01.999Z,100.0
2018-09-17T07:46:02.729Z,100.0
2018-09-17T07:47:03.457Z,100.0
2018-09-17T07:48:04.190Z,100.0
2018-09-17T07:49:04.909Z,100.0
2018-09-17T07:50:05.637Z,100.0
2018-09-17T07:51:06.353Z,100.0
2018-09-17T07:52:07.086Z,100.0
2018-09-17T07:53:07.867Z,100.0
2018-09-17T07:54:08.549Z,100.0
2018-09-17T07:55:09.292Z,100.0
2018-09-17T07:56:10.016Z,99.9
2018-09-17T07:57:10.732Z,99.2
2018-09-17T07:58:11.456Z,98.1
2018-09-17T07:59:12.182Z,98.6
2018-09-17T08:00:12.911Z,98.0
2018-09-17T08:01:13.628Z,96.6
2018-09-17T08:02:14.365Z,96.1
2018-09-17T08:03:15.089Z,95.4
2018-09-17T08:04:15.823Z,93.2
2018-09-17T08:05:16.546Z,92.9
2018-09-17T08:06:17.287Z,89.9
2018-09-17T08:07:18.009Z,84.5
2018-09-17T08:08:19.044Z,83.5
2018-09-17T08:09:19.763Z,84.7
2018-09-17T08:10:20.501Z,82.6
2018-09-17T08:11:21.466Z,78.4
2018-09-17T08:12:22.191Z,77.5
2018-09-17T08:13:23.177Z,77.0
2018-09-17T08:14:23.908Z,77.6
2018-09-17T08:15:24.639Z,76.9
2018-09-17T08:16:25.365Z,76.9
2018-09-17T08:17:26.101Z,77.5
2018-09-17T08:18:26.828Z,77.6
2018-09-17T08:19:27.558Z,75.7
2018-09-17T08:20:28.290Z,75.5
2018-09-17T08:21:29.009Z,76.5
2018-09-17T08:22:29.744Z,73.0
2018-09-17T08:23:30.461Z,73.1
2018-09-17T08:24:31.253Z,73.1
2018-09-17T08:25:32.005Z,74.6
2018-09-17T08:26:32.674Z,72.9
2018-09-17T08:27:33.402Z,72.9
2018-09-17T08:28:34.135Z,71.7
2018-09-17T08:29:34.865Z,71.8
2018-09-17T08:30:35.603Z,72.7
2018-09-17T08:31:36.386Z,72.9
2018-09-17T08:32:37.122Z,73.3
2018-09-17T08:33:37.842Z,72.3
2018-09-17T08:34:38.580Z,71.0
2018-09-17T08:35:39.563Z,72.1
2018-09-17T08:36:40.305Z,71.5
2018-09-17T08:37:41.033Z,70.6
2018-09-17T08:38:41.775Z,68.9
2018-09-17T08:39:42.497Z,69.9
2018-09-17T08:40:43.231Z,71.0
2018-09-17T08:41:43.954Z,66.2
2018-09-17T08:42:44.692Z,66.8
2018-09-17T08:43:45.439Z,67.9
2018-09-17T08:44:46.175Z,67.7
2018-09-17T08:45:46.908Z,68.5
2018-09-17T08:46:47.636Z,67.9
2018-09-17T08:47:48.365Z,66.9
2018-09-17T08:48:49.124Z,65.4
2018-09-17T08:49:49.827Z,63.8
2018-09-17T08:50:50.554Z,64.1
2018-09-17T08:51:51.292Z,64.6
2018-09-17T08:52:52.089Z,63.5
2018-09-17T08:53:52.768Z,61.6
2018-09-17T08:54:53.499Z,62.1
2018-09-17T08:55:54.229Z,60.6
2018-09-17T08:56:54.960Z,61.6
2018-09-17T08:57:55.701Z,60.9
2018-09-17T08:58:56.423Z,60.8
2018-09-17T08:59:57.176Z,59.8
2018-09-17T09:00:57.901Z,57.7
2018-09-17T09:01:58.645Z,58.6
2018-09-17T09:02:59.359Z,59.0
2018-09-17T09:04:00.109Z,59.1
2018-09-17T09:05:00.874Z,59.8
2018-09-17T09:06:01.604Z,60.4
2018-09-17T09:07:02.342Z,59.7
2018-09-17T09:08:03.086Z,60.3
2018-09-17T09:09:03.821Z,60.3
2018-09-17T09:10:04.552Z,59.7
2018-09-17T09:11:05.354Z,60.2
2018-09-17T09:12:06.076Z,59.8
2018-09-17T09:13:06.805Z,59.6
2018-09-17T09:14:07.544Z,58.1
2018-09-17T09:15:08.274Z,57.2
2018-09-17T09:16:09.268Z,54.1
2018-09-17T09:17:09.996Z,54.5
2018-09-17T09:18:10.754Z,55.5
2018-09-17T09:19:11.482Z,56.6
2018-09-17T09:20:12.229Z,56.3
2018-09-17T09:21:12.969Z,56.3
2018-09-17T09:22:13.701Z,56.6
2018-09-17T09:23:14.427Z,57.2
2018-09-17T09:24:15.150Z,56.4
2018-09-17T09:25:16.163Z,56.4
2018-09-17T09:26:16.997Z,56.8
2018-09-17T09:27:18.207Z,56.0
2018-09-17T09:28:19.059Z,57.1
2018-09-17T09:29:20.051Z,56.3
2018-09-17T09:30:20.897Z,55.6
2018-09-17T09:31:21.626Z,55.8
2018-09-17T09:32:22.609Z,56.0
2018-09-17T09:33:23.382Z,54.7
2018-09-17T09:34:24.116Z,54.1
2018-09-17T09:35:24.959Z,53.3
2018-09-17T09:36:26.072Z,54.4
2018-09-17T09:37:26.881Z,53.4
2018-09-17T09:38:27.850Z,53.9
2018-09-17T09:39:28.582Z,53.5
2018-09-17T09:40:29.318Z,53.1
2018-09-17T09:41:30.292Z,53.2
2018-09-17T09:42:31.012Z,51.6
2018-09-17T09:43:31.797Z,51.6
2018-09-17T09:44:32.526Z,50.6
2018-09-17T09:45:33.272Z,50.0
2018-09-17T09:46:34.001Z,51.2
2018-09-17T09:47:34.743Z,49.7
2018-09-17T09:48:35.480Z,50.2
2018-09-17T09:49:36.213Z,50.0
2018-09-17T09:50:36.940Z,49.7
2018-09-17T09:51:37.685Z,50.0
2018-09-17T09:52:38.450Z,49.2
2018-09-17T09:53:39.153Z,48.9
2018-09-17T09:54:39.885Z,49.0
2018-09-17T09:55:40.623Z,49.5
2018-09-17T09:56:41.351Z,48.6
2018-09-17T09:57:42.078Z,49.3
2018-09-17T09:58:42.816Z,50.3
2018-09-17T09:59:44.135Z,49.8
2018-09-17T10:00:44.890Z,48.6
2018-09-17T10:01:45.632Z,48.7
2018-09-17T10:02:46.400Z,49.5
2018-09-17T10:03:47.126Z,48.9
2018-09-17T10:04:47.863Z,49.4
2018-09-17T10:05:48.607Z,47.8
2018-09-17T10:06:49.338Z,48.1
2018-09-17T10:07:50.322Z,48.5
2018-09-17T10:08:51.060Z,48.0
2018-09-17T10:09:51.843Z,46.0
2018-09-17T10:10:52.568Z,46.5
2018-09-17T10:11:53.310Z,48.0
2018-09-17T10:12:54.043Z,47.3
2018-09-17T10:13:54.781Z,44.9
2018-09-17T10:14:55.506Z,45.7
2018-09-17T10:15:56.253Z,47.0
2018-09-17T10:16:57.248Z,46.3
2018-09-17T10:17:57.990Z,46.1
2018-09-17T10:18:59.064Z,47.1
2018-09-17T10:19:59.811Z,48.0
2018-09-17T10:21:00.548Z,47.3
2018-09-17T10:22:01.285Z,46.9
2018-09-17T10:23:02.028Z,46.3
2018-09-17T10:24:02.763Z,46.7
2018-09-17T10:25:03.499Z,47.1
2018-09-17T10:26:04.234Z,47.4
2018-09-17T10:27:04.971Z,47.9
2018-09-17T10:28:05.713Z,47.6
2018-09-17T10:29:06.442Z,47.9
2018-09-17T10:30:07.188Z,48.3
2018-09-17T10:31:07.930Z,48.2
2018-09-17T10:32:08.721Z,46.7
2018-09-17T10:33:09.457Z,47.9
2018-09-17T10:34:10.190Z,49.1
2018-09-17T10:35:10.921Z,49.2
2018-09-17T10:36:11.662Z,48.5
2018-09-17T10:37:12.446Z,48.2
2018-09-17T10:38:13.192Z,49.4
2018-09-17T10:39:13.923Z,48.9
2018-09-17T10:40:14.658Z,48.5
2018-09-17T10:41:15.398Z,49.7
2018-09-17T10:42:16.181Z,49.5
2018-09-17T10:43:16.911Z,47.8
2018-09-17T10:44:17.645Z,48.7
2018-09-17T10:45:18.374Z,48.7
2018-09-17T10:46:19.102Z,48.2
2018-09-17T10:47:20.089Z,49.8
2018-09-17T10:48:20.825Z,48.8
2018-09-17T10:49:21.558Z,47.7
2018-09-17T10:50:22.299Z,47.9
2018-09-17T10:51:23.027Z,48.1
2018-09-17T10:52:23.774Z,48.9
2018-09-17T10:53:24.537Z,48.0
2018-09-17T10:54:25.273Z,46.7
2018-09-17T10:55:26.009Z,46.8
2018-09-17T10:56:26.749Z,46.8
2018-09-17T10:57:27.565Z,46.9
2018-09-17T10:58:28.219Z,46.8
2018-09-17T10:59:28.944Z,46.5
2018-09-17T11:00:29.683Z,48.0
2018-09-17T11:01:30.412Z,48.1
2018-09-17T11:02:31.150Z,46.1
2018-09-17T11:03:31.881Z,47.0
2018-09-17T11:04:32.618Z,46.4
2018-09-17T11:05:33.351Z,48.0
2018-09-17T11:06:34.084Z,49.2
2018-09-17T11:07:34.821Z,48.2
2018-09-17T11:08:35.561Z,47.9
2018-09-17T11:09:36.303Z,47.3
2018-09-17T11:10:37.042Z,46.8
2018-09-17T11:11:38.032Z,46.5
2018-09-17T11:12:38.768Z,46.9
2018-09-17T11:13:39.509Z,46.5
2018-09-17T11:14:40.248Z,45.7
2018-09-17T11:15:40.982Z,47.1
2018-09-17T11:16:41.721Z,45.8
2018-09-17T11:17:42.462Z,45.1
2018-09-17T11:18:43.194Z,45.3
2018-09-17T11:19:43.926Z,44.8
2018-09-17T11:20:44.665Z,45.0
2018-09-17T11:21:45.403Z,47.1
2018-09-17T11:22:46.133Z,48.1
2018-09-17T11:23:46.874Z,47.3
2018-09-17T11:24:47.613Z,46.2
2018-09-17T11:25:48.339Z,47.7
2018-09-17T11:26:49.070Z,47.1
2018-09-17T11:27:49.821Z,44.8
2018-09-17T11:28:50.804Z,45.0
2018-09-17T11:29:51.536Z,45.0
2018-09-17T11:30:52.298Z,44.0
2018-09-17T11:31:53.041Z,42.2
2018-09-17T11:32:53.774Z,42.9
2018-09-17T11:33:54.766Z,42.4
2018-09-17T11:34:55.493Z,44.1
2018-09-17T11:35:56.514Z,43.7
2018-09-17T11:36:57.334Z,44.7
2018-09-17T11:37:58.082Z,44.2
2018-09-17T11:38:59.083Z,44.2
2018-09-17T11:39:59.815Z,44.8
2018-09-17T11:41:00.602Z,45.0
2018-09-17T11:42:01.292Z,43.5
2018-09-17T11:43:02.019Z,44.3
2018-09-17T11:44:02.771Z,44.7
2018-09-17T11:45:03.502Z,43.5
2018-09-17T11:46:04.240Z,42.9
2018-09-17T11:47:04.983Z,43.1
2018-09-17T11:48:05.752Z,43.6
2018-09-17T11:49:06.448Z,44.6
2018-09-17T11:50:07.195Z,44.9
2018-09-17T11:51:07.928Z,43.2
2018-09-17T11:52:08.928Z,43.1
2018-09-17T11:53:09.697Z,42.7
2018-09-17T11:54:10.387Z,42.5
2018-09-17T11:55:11.118Z,43.2
2018-09-17T11:56:11.853Z,42.6
2018-09-17T11:57:12.600Z,43.2
2018-09-17T11:58:13.333Z,42.3
2018-09-17T11:59:14.075Z,43.4
2018-09-17T12:00:14.818Z,42.8
2018-09-17T12:01:15.564Z,42.9
2018-09-17T12:02:16.345Z,43.6
2018-09-17T12:03:17.030Z,44.5
2018-09-17T12:04:17.762Z,43.9
2018-09-17T12:05:18.506Z,43.5
2018-09-17T12:06:19.301Z,43.4
2018-09-17T12:07:20.037Z,43.6
2018-09-17T12:08:20.785Z,42.5
2018-09-17T12:09:21.578Z,42.0
2018-09-17T12:10:22.263Z,42.1
2018-09-17T12:11:22.997Z,41.9
2018-09-17T12:12:23.737Z,41.2
2018-09-17T12:13:24.494Z,41.3
2018-09-17T12:14:25.619Z,41.0
2018-09-17T12:15:26.353Z,40.5
2018-09-17T12:16:27.098Z,39.8
2018-09-17T12:17:28.093Z,40.3
2018-09-17T12:18:28.835Z,41.2
2018-09-17T12:19:29.820Z,40.6
2018-09-17T12:20:30.553Z,40.0
2018-09-17T12:21:31.602Z,39.6
2018-09-17T12:22:32.407Z,39.5
2018-09-17T12:23:33.195Z,39.7
2018-09-17T12:24:33.941Z,39.5
2018-09-17T12:25:34.674Z,41.3
2018-09-17T12:26:35.448Z,42.1
2018-09-17T12:27:36.835Z,40.3
2018-09-17T12:28:37.722Z,39.1
2018-09-17T12:29:38.505Z,39.7
2018-09-17T12:30:39.244Z,39.8
2018-09-17T12:31:39.984Z,40.2
2018-09-17T12:32:40.727Z,39.3
2018-09-17T12:33:41.733Z,39.3
2018-09-17T12:34:42.448Z,39.1
2018-09-17T12:35:43.231Z,37.9
2018-09-17T12:36:43.980Z,37.0
2018-09-17T12:37:44.722Z,37.2
2018-09-17T12:38:45.477Z,37.6
2018-09-17T12:39:46.217Z,36.8
2018-09-17T12:40:47.015Z,37.0
2018-09-17T12:41:47.760Z,38.2
2018-09-17T12:42:48.511Z,39.1
2018-09-17T12:43:49.264Z,39.2
2018-09-17T12:44:50.039Z,39.3
2018-09-17T12:45:50.751Z,38.3
2018-09-17T12:46:51.644Z,38.1
2018-09-17T12:47:53.068Z,38.4
2018-09-17T12:48:53.949Z,39.1
2018-09-17T12:49:54.673Z,39.3
2018-09-17T12:50:55.477Z,39.1
2018-09-17T12:51:56.187Z,40.3
2018-09-17T12:52:56.914Z,39.6
2018-09-17T12:53:57.661Z,40.6
2018-09-17T12:54:58.656Z,40.1
2018-09-17T12:55:59.454Z,40.8
2018-09-17T12:57:00.206Z,40.6
2018-09-17T12:58:01.465Z,41.0
2018-09-17T12:59:02.195Z,41.7
2018-09-17T13:00:03.108Z,43.3
2018-09-17T13:01:03.840Z,43.9
2018-09-17T13:02:04.628Z,44.1
2018-09-17T13:03:05.354Z,44.0
2018-09-17T13:04:06.094Z,43.4
2018-09-17T13:05:06.829Z,43.5
2018-09-17T13:06:07.581Z,43.8
2018-09-17T13:07:08.324Z,43.5
2018-09-17T13:08:09.056Z,43.3
2018-09-17T13:09:09.811Z,43.0
2018-09-17T13:10:10.543Z,43.0
2018-09-17T13:11:11.284Z,43.5
2018-09-17T13:12:12.022Z,42.0